sensor_id;sensor_type;location;lat;lon;timestamp;P1;durP1;ratioP1;P2;durP2;ratioP2
35907;SDS011;22003;50.320;8.054;2022-08-01T04:01:32;2.22;;;1.70;;
35907;SDS011;22003;50.320;8.054;2022-08-01T04:03:59;2.15;;;1.95;;
35907;SDS011;22003;50.320;8.054;2022-08-01T04:06:25;5.68;;;1.90;;
35907;SDS011;22003;50.320;8.054;2022-08-01T04:08:50;2.58;;;1.85;;
35907;SDS011;22003;50.320;8.054;2022-08-01T04:14:28;4.30;;;2.20;;
35907;SDS011;22003;50.320;8.054;2022-08-01T04:16:53;5.10;;;2.33;;
35907;SDS011;22003;50.320;8.054;2022-08-01T04:19:19;2.88;;;2.30;;
35907;SDS011;22003;50.320;8.054;2022-08-01T04:21:44;3.45;;;2.15;;
35907;SDS011;22003;50.320;8.054;2022-08-01T04:24:12;2.15;;;1.88;;
35907;SDS011;22003;50.320;8.054;2022-08-01T04:26:40;4.03;;;2.17;;
35907;SDS011;22003;50.320;8.054;2022-08-01T04:29:08;4.60;;;2.45;;
35907;SDS011;22003;50.320;8.054;2022-08-01T04:31:35;4.85;;;2.53;;
35907;SDS011;22003;50.320;8.054;2022-08-01T04:34:02;2.72;;;2.15;;
35907;SDS011;22003;50.320;8.054;2022-08-01T04:36:29;2.00;;;1.73;;
35907;SDS011;22003;50.320;8.054;2022-08-01T04:39:00;2.72;;;1.75;;
35907;SDS011;22003;50.320;8.054;2022-08-01T04:41:26;5.53;;;2.10;;
35907;SDS011;22003;50.320;8.054;2022-08-01T04:43:54;5.60;;;2.15;;
35907;SDS011;22003;50.320;8.054;2022-08-01T04:46:20;2.50;;;2.30;;
35907;SDS011;22003;50.320;8.054;2022-08-01T04:48:47;3.43;;;2.17;;
35907;SDS011;22003;50.320;8.054;2022-08-01T04:51:14;4.25;;;2.45;;
35907;SDS011;22003;50.320;8.054;2022-08-01T04:53:40;2.30;;;2.10;;
35907;SDS011;22003;50.320;8.054;2022-08-01T04:56:06;3.22;;;2.25;;
35907;SDS011;22003;50.320;8.054;2022-08-01T04:58:32;2.85;;;2.28;;
35907;SDS011;22003;50.320;8.054;2022-08-01T05:00:57;4.35;;;2.03;;
35907;SDS011;22003;50.320;8.054;2022-08-01T05:03:22;2.83;;;2.03;;
35907;SDS011;22003;50.320;8.054;2022-08-01T05:05:48;2.85;;;1.88;;
35907;SDS011;22003;50.320;8.054;2022-08-01T05:08:13;4.18;;;2.58;;
35907;SDS011;22003;50.320;8.054;2022-08-01T05:10:38;6.57;;;2.60;;
35907;SDS011;22003;50.320;8.054;2022-08-01T05:13:04;2.75;;;2.35;;
35907;SDS011;22003;50.320;8.054;2022-08-01T05:15:29;4.90;;;2.67;;
35907;SDS011;22003;50.320;8.054;2022-08-01T05:17:54;2.70;;;2.47;;
35907;SDS011;22003;50.320;8.054;2022-08-01T05:20:21;2.95;;;2.65;;
35907;SDS011;22003;50.320;8.054;2022-08-01T05:22:46;3.17;;;2.83;;
35907;SDS011;22003;50.320;8.054;2022-08-01T05:25:11;3.53;;;2.78;;
35907;SDS011;22003;50.320;8.054;2022-08-01T05:27:37;3.13;;;2.67;;
35907;SDS011;22003;50.320;8.054;2022-08-01T05:30:08;5.05;;;2.88;;
35907;SDS011;22003;50.320;8.054;2022-08-01T05:32:34;4.35;;;3.13;;
35907;SDS011;22003;50.320;8.054;2022-08-01T05:35:00;3.65;;;2.80;;
35907;SDS011;22003;50.320;8.054;2022-08-01T05:37:25;3.75;;;2.72;;
35907;SDS011;22003;50.320;8.054;2022-08-01T05:39:51;3.00;;;2.70;;
35907;SDS011;22003;50.320;8.054;2022-08-01T05:42:16;3.95;;;2.58;;
35907;SDS011;22003;50.320;8.054;2022-08-01T05:44:41;3.78;;;2.72;;
35907;SDS011;22003;50.320;8.054;2022-08-01T05:47:06;4.13;;;3.08;;
35907;SDS011;22003;50.320;8.054;2022-08-01T05:49:32;3.83;;;3.13;;
35907;SDS011;22003;50.320;8.054;2022-08-01T05:51:57;3.88;;;3.35;;
35907;SDS011;22003;50.320;8.054;2022-08-01T05:54:22;5.53;;;3.10;;
35907;SDS011;22003;50.320;8.054;2022-08-01T05:56:48;3.97;;;3.25;;
35907;SDS011;22003;50.320;8.054;2022-08-01T05:59:13;5.40;;;4.18;;
35907;SDS011;22003;50.320;8.054;2022-08-01T06:01:38;5.85;;;3.03;;
35907;SDS011;22003;50.320;8.054;2022-08-01T06:04:03;5.18;;;3.50;;
35907;SDS011;22003;50.320;8.054;2022-08-01T06:06:29;4.13;;;3.20;;
35907;SDS011;22003;50.320;8.054;2022-08-01T06:08:54;5.13;;;3.38;;
35907;SDS011;22003;50.320;8.054;2022-08-01T06:11:19;4.13;;;3.72;;
35907;SDS011;22003;50.320;8.054;2022-08-01T06:13:44;3.88;;;3.47;;
35907;SDS011;22003;50.320;8.054;2022-08-01T06:16:10;3.50;;;3.20;;
35907;SDS011;22003;50.320;8.054;2022-08-01T06:18:35;4.53;;;3.03;;
35907;SDS011;22003;50.320;8.054;2022-08-01T06:21:00;5.78;;;3.75;;
35907;SDS011;22003;50.320;8.054;2022-08-01T06:23:26;4.20;;;3.38;;
35907;SDS011;22003;50.320;8.054;2022-08-01T06:25:52;3.90;;;3.47;;
35907;SDS011;22003;50.320;8.054;2022-08-01T06:28:19;5.68;;;3.67;;
35907;SDS011;22003;50.320;8.054;2022-08-01T06:30:44;4.03;;;3.30;;
35907;SDS011;22003;50.320;8.054;2022-08-01T06:33:09;4.93;;;3.63;;
35907;SDS011;22003;50.320;8.054;2022-08-01T06:35:34;5.20;;;3.45;;
35907;SDS011;22003;50.320;8.054;2022-08-01T06:38:01;5.72;;;3.17;;
35907;SDS011;22003;50.320;8.054;2022-08-01T06:40:27;5.10;;;3.55;;
35907;SDS011;22003;50.320;8.054;2022-08-01T06:42:52;5.20;;;3.40;;
35907;SDS011;22003;50.320;8.054;2022-08-01T06:45:17;5.45;;;3.92;;
35907;SDS011;22003;50.320;8.054;2022-08-01T06:47:44;6.88;;;3.80;;
35907;SDS011;22003;50.320;8.054;2022-08-01T06:50:10;4.43;;;3.30;;
35907;SDS011;22003;50.320;8.054;2022-08-01T06:52:36;4.90;;;3.33;;
35907;SDS011;22003;50.320;8.054;2022-08-01T06:55:02;6.57;;;3.33;;
35907;SDS011;22003;50.320;8.054;2022-08-01T06:57:28;6.20;;;4.05;;
35907;SDS011;22003;50.320;8.054;2022-08-01T06:59:53;5.03;;;3.72;;
35907;SDS011;22003;50.320;8.054;2022-08-01T07:02:19;7.40;;;3.38;;
35907;SDS011;22003;50.320;8.054;2022-08-01T07:04:45;6.97;;;3.22;;
35907;SDS011;22003;50.320;8.054;2022-08-01T07:07:10;5.63;;;3.42;;
35907;SDS011;22003;50.320;8.054;2022-08-01T07:09:35;3.97;;;3.40;;
35907;SDS011;22003;50.320;8.054;2022-08-01T07:12:01;6.18;;;4.20;;
35907;SDS011;22003;50.320;8.054;2022-08-01T07:14:27;4.40;;;3.72;;
35907;SDS011;22003;50.320;8.054;2022-08-01T07:16:52;9.27;;;4.97;;
35907;SDS011;22003;50.320;8.054;2022-08-01T07:19:18;11.30;;;3.85;;
35907;SDS011;22003;50.320;8.054;2022-08-01T07:21:43;6.50;;;3.78;;
35907;SDS011;22003;50.320;8.054;2022-08-01T07:24:09;6.85;;;2.92;;
35907;SDS011;22003;50.320;8.054;2022-08-01T07:26:37;5.65;;;3.13;;
35907;SDS011;22003;50.320;8.054;2022-08-01T07:29:03;6.22;;;3.13;;
35907;SDS011;22003;50.320;8.054;2022-08-01T07:31:28;9.00;;;4.53;;
35907;SDS011;22003;50.320;8.054;2022-08-01T07:33:53;6.82;;;4.70;;
35907;SDS011;22003;50.320;8.054;2022-08-01T07:36:19;7.13;;;4.65;;
35907;SDS011;22003;50.320;8.054;2022-08-01T07:38:45;7.13;;;4.25;;
35907;SDS011;22003;50.320;8.054;2022-08-01T07:41:11;5.70;;;4.72;;
35907;SDS011;22003;50.320;8.054;2022-08-01T07:43:36;5.30;;;4.00;;
35907;SDS011;22003;50.320;8.054;2022-08-01T07:46:02;4.60;;;3.88;;
35907;SDS011;22003;50.320;8.054;2022-08-01T07:48:28;6.47;;;4.15;;
35907;SDS011;22003;50.320;8.054;2022-08-01T07:50:54;6.22;;;4.25;;
35907;SDS011;22003;50.320;8.054;2022-08-01T07:53:19;5.90;;;4.72;;
35907;SDS011;22003;50.320;8.054;2022-08-01T07:55:44;6.15;;;4.70;;
35907;SDS011;22003;50.320;8.054;2022-08-01T07:58:09;10.35;;;5.85;;
35907;SDS011;22003;50.320;8.054;2022-08-01T08:00:35;8.23;;;5.93;;
35907;SDS011;22003;50.320;8.054;2022-08-01T08:03:00;6.22;;;5.55;;
35907;SDS011;22003;50.320;8.054;2022-08-01T08:05:26;11.93;;;5.22;;
35907;SDS011;22003;50.320;8.054;2022-08-01T08:07:51;7.25;;;4.70;;
35907;SDS011;22003;50.320;8.054;2022-08-01T08:10:16;5.57;;;4.70;;
35907;SDS011;22003;50.320;8.054;2022-08-01T08:12:42;5.97;;;4.50;;
35907;SDS011;22003;50.320;8.054;2022-08-01T08:15:07;5.30;;;4.30;;
35907;SDS011;22003;50.320;8.054;2022-08-01T08:17:33;9.40;;;4.88;;
35907;SDS011;22003;50.320;8.054;2022-08-01T08:19:58;6.65;;;4.85;;
35907;SDS011;22003;50.320;8.054;2022-08-01T08:22:24;4.88;;;4.07;;
35907;SDS011;22003;50.320;8.054;2022-08-01T08:24:49;7.30;;;4.68;;
35907;SDS011;22003;50.320;8.054;2022-08-01T08:27:14;5.32;;;4.40;;
35907;SDS011;22003;50.320;8.054;2022-08-01T08:29:40;5.25;;;3.63;;
35907;SDS011;22003;50.320;8.054;2022-08-01T08:32:06;5.22;;;3.92;;
35907;SDS011;22003;50.320;8.054;2022-08-01T08:34:32;5.75;;;3.80;;
35907;SDS011;22003;50.320;8.054;2022-08-01T08:36:57;5.38;;;3.55;;
35907;SDS011;22003;50.320;8.054;2022-08-01T08:39:23;5.15;;;3.85;;
35907;SDS011;22003;50.320;8.054;2022-08-01T08:41:49;6.07;;;3.50;;
35907;SDS011;22003;50.320;8.054;2022-08-01T08:44:16;7.75;;;4.50;;
35907;SDS011;22003;50.320;8.054;2022-08-01T08:46:42;4.80;;;3.35;;
35907;SDS011;22003;50.320;8.054;2022-08-01T08:49:11;4.13;;;3.50;;
35907;SDS011;22003;50.320;8.054;2022-08-01T08:51:39;3.45;;;3.05;;
35907;SDS011;22003;50.320;8.054;2022-08-01T08:54:06;3.85;;;3.45;;
35907;SDS011;22003;50.320;8.054;2022-08-01T08:56:32;4.15;;;3.15;;
35907;SDS011;22003;50.320;8.054;2022-08-01T08:59:00;7.75;;;2.70;;
35907;SDS011;22003;50.320;8.054;2022-08-01T09:01:27;3.97;;;2.67;;
35907;SDS011;22003;50.320;8.054;2022-08-01T09:03:53;4.32;;;3.05;;
35907;SDS011;22003;50.320;8.054;2022-08-01T09:06:19;4.35;;;3.28;;
35907;SDS011;22003;50.320;8.054;2022-08-01T09:08:44;3.55;;;2.85;;
35907;SDS011;22003;50.320;8.054;2022-08-01T09:11:10;3.13;;;2.70;;
35907;SDS011;22003;50.320;8.054;2022-08-01T09:13:35;4.03;;;3.38;;
35907;SDS011;22003;50.320;8.054;2022-08-01T09:16:01;5.07;;;3.33;;
35907;SDS011;22003;50.320;8.054;2022-08-01T09:21:12;5.35;;;2.80;;
35907;SDS011;22003;50.320;8.054;2022-08-01T09:23:47;5.57;;;2.45;;
35907;SDS011;22003;50.320;8.054;2022-08-01T09:26:13;4.25;;;3.20;;
35907;SDS011;22003;50.320;8.054;2022-08-01T09:28:43;4.65;;;2.67;;
35907;SDS011;22003;50.320;8.054;2022-08-01T09:31:11;4.50;;;3.50;;
35907;SDS011;22003;50.320;8.054;2022-08-01T09:36:15;4.72;;;2.80;;
35907;SDS011;22003;50.320;8.054;2022-08-01T09:38:41;3.92;;;3.17;;
35907;SDS011;22003;50.320;8.054;2022-08-01T09:41:06;3.60;;;2.95;;
35907;SDS011;22003;50.320;8.054;2022-08-01T09:43:32;3.08;;;2.75;;
35907;SDS011;22003;50.320;8.054;2022-08-01T09:45:58;4.85;;;2.72;;
35907;SDS011;22003;50.320;8.054;2022-08-01T09:48:25;4.30;;;2.58;;
35907;SDS011;22003;50.320;8.054;2022-08-01T09:50:52;6.00;;;2.50;;
35907;SDS011;22003;50.320;8.054;2022-08-01T09:53:18;6.88;;;3.03;;
35907;SDS011;22003;50.320;8.054;2022-08-01T09:55:44;3.63;;;2.70;;
35907;SDS011;22003;50.320;8.054;2022-08-01T09:58:10;3.45;;;2.55;;
35907;SDS011;22003;50.320;8.054;2022-08-01T10:00:37;3.15;;;2.78;;
35907;SDS011;22003;50.320;8.054;2022-08-01T10:03:25;2.25;;;2.05;;
35907;SDS011;22003;50.320;8.054;2022-08-01T10:05:51;3.97;;;2.72;;
35907;SDS011;22003;50.320;8.054;2022-08-01T10:08:18;4.00;;;2.73;;
35907;SDS011;22003;50.320;8.054;2022-08-01T10:11:18;3.63;;;2.28;;
35907;SDS011;22003;50.320;8.054;2022-08-01T10:13:37;4.60;;;2.10;;
35907;SDS011;22003;50.320;8.054;2022-08-01T10:16:03;2.33;;;2.13;;
35907;SDS011;22003;50.320;8.054;2022-08-01T10:18:32;3.15;;;2.15;;
35907;SDS011;22003;50.320;8.054;2022-08-01T10:20:58;2.53;;;1.85;;
35907;SDS011;22003;50.320;8.054;2022-08-01T10:25:51;3.35;;;2.35;;
35907;SDS011;22003;50.320;8.054;2022-08-01T10:28:20;3.15;;;2.17;;
35907;SDS011;22003;50.320;8.054;2022-08-01T10:30:47;4.28;;;2.30;;
35907;SDS011;22003;50.320;8.054;2022-08-01T10:33:12;3.25;;;2.28;;
35907;SDS011;22003;50.320;8.054;2022-08-01T10:35:39;4.93;;;2.35;;
35907;SDS011;22003;50.320;8.054;2022-08-01T10:38:04;3.63;;;2.20;;
35907;SDS011;22003;50.320;8.054;2022-08-01T10:40:30;2.67;;;2.03;;
35907;SDS011;22003;50.320;8.054;2022-08-01T10:42:56;5.53;;;2.95;;
35907;SDS011;22003;50.320;8.054;2022-08-01T10:45:22;2.60;;;2.10;;
35907;SDS011;22003;50.320;8.054;2022-08-01T10:47:56;3.80;;;3.00;;
35907;SDS011;22003;50.320;8.054;2022-08-01T10:50:35;2.50;;;2.30;;
35907;SDS011;22003;50.320;8.054;2022-08-01T10:53:15;2.85;;;2.22;;
35907;SDS011;22003;50.320;8.054;2022-08-01T10:58:11;4.13;;;2.80;;
35907;SDS011;22003;50.320;8.054;2022-08-01T11:00:37;3.22;;;2.17;;
35907;SDS011;22003;50.320;8.054;2022-08-01T11:03:02;3.20;;;2.20;;
35907;SDS011;22003;50.320;8.054;2022-08-01T11:05:32;4.32;;;2.50;;
35907;SDS011;22003;50.320;8.054;2022-08-01T11:08:03;3.85;;;2.20;;
35907;SDS011;22003;50.320;8.054;2022-08-01T11:10:38;3.95;;;2.40;;
35907;SDS011;22003;50.320;8.054;2022-08-01T11:13:05;6.65;;;2.47;;
35907;SDS011;22003;50.320;8.054;2022-08-01T11:15:36;2.67;;;2.20;;
35907;SDS011;22003;50.320;8.054;2022-08-01T11:18:03;3.40;;;2.30;;
35907;SDS011;22003;50.320;8.054;2022-08-01T11:20:55;4.65;;;2.53;;
35907;SDS011;22003;50.320;8.054;2022-08-01T11:23:23;3.00;;;2.40;;
35907;SDS011;22003;50.320;8.054;2022-08-01T11:30:45;7.70;;;4.07;;
35907;SDS011;22003;50.320;8.054;2022-08-01T11:33:15;3.17;;;2.53;;
35907;SDS011;22003;50.320;8.054;2022-08-01T11:41:13;4.10;;;2.55;;
35907;SDS011;22003;50.320;8.054;2022-08-01T11:51:48;3.17;;;2.25;;
35907;SDS011;22003;50.320;8.054;2022-08-01T11:54:24;2.97;;;2.65;;
35907;SDS011;22003;50.320;8.054;2022-08-01T11:56:53;3.67;;;2.60;;
35907;SDS011;22003;50.320;8.054;2022-08-01T11:59:21;4.18;;;2.88;;
35907;SDS011;22003;50.320;8.054;2022-08-01T12:01:47;2.85;;;2.55;;
35907;SDS011;22003;50.320;8.054;2022-08-01T12:04:12;4.90;;;2.80;;
35907;SDS011;22003;50.320;8.054;2022-08-01T12:06:38;2.95;;;2.28;;
35907;SDS011;22003;50.320;8.054;2022-08-01T12:09:16;4.28;;;2.65;;
35907;SDS011;22003;50.320;8.054;2022-08-01T12:11:43;2.90;;;2.50;;
35907;SDS011;22003;50.320;8.054;2022-08-01T12:14:09;3.80;;;2.75;;
35907;SDS011;22003;50.320;8.054;2022-08-01T12:16:36;3.22;;;2.90;;
35907;SDS011;22003;50.320;8.054;2022-08-01T12:19:01;3.55;;;2.65;;
35907;SDS011;22003;50.320;8.054;2022-08-01T12:21:27;2.63;;;2.42;;
35907;SDS011;22003;50.320;8.054;2022-08-01T12:24:02;3.30;;;2.50;;
35907;SDS011;22003;50.320;8.054;2022-08-01T12:26:40;3.55;;;2.70;;
35907;SDS011;22003;50.320;8.054;2022-08-01T12:29:06;3.05;;;2.67;;
35907;SDS011;22003;50.320;8.054;2022-08-01T12:31:32;3.00;;;2.70;;
35907;SDS011;22003;50.320;8.054;2022-08-01T12:37:02;4.10;;;2.58;;
35907;SDS011;22003;50.320;8.054;2022-08-01T12:39:31;3.33;;;2.28;;
35907;SDS011;22003;50.320;8.054;2022-08-01T12:41:58;3.80;;;2.35;;
35907;SDS011;22003;50.320;8.054;2022-08-01T12:44:24;3.85;;;2.28;;
35907;SDS011;22003;50.320;8.054;2022-08-01T12:46:52;3.28;;;2.97;;
35907;SDS011;22003;50.320;8.054;2022-08-01T12:49:17;2.33;;;2.13;;
35907;SDS011;22003;50.320;8.054;2022-08-01T12:51:43;3.13;;;2.80;;
35907;SDS011;22003;50.320;8.054;2022-08-01T12:54:08;2.95;;;2.65;;
35907;SDS011;22003;50.320;8.054;2022-08-01T12:56:35;4.57;;;2.97;;
35907;SDS011;22003;50.320;8.054;2022-08-01T12:59:00;3.30;;;2.63;;
35907;SDS011;22003;50.320;8.054;2022-08-01T13:01:27;2.92;;;2.65;;
35907;SDS011;22003;50.320;8.054;2022-08-01T13:04:02;6.63;;;3.10;;
35907;SDS011;22003;50.320;8.054;2022-08-01T13:09:10;3.97;;;3.30;;
35907;SDS011;22003;50.320;8.054;2022-08-01T13:11:36;5.20;;;3.20;;
35907;SDS011;22003;50.320;8.054;2022-08-01T13:14:02;3.38;;;3.00;;
35907;SDS011;22003;50.320;8.054;2022-08-01T13:16:27;3.45;;;2.80;;
35907;SDS011;22003;50.320;8.054;2022-08-01T13:18:56;4.68;;;2.97;;
35907;SDS011;22003;50.320;8.054;2022-08-01T13:21:22;3.78;;;2.80;;
35907;SDS011;22003;50.320;8.054;2022-08-01T13:24:05;5.38;;;3.17;;
35907;SDS011;22003;50.320;8.054;2022-08-01T13:29:17;4.63;;;3.00;;
35907;SDS011;22003;50.320;8.054;2022-08-01T13:31:44;9.25;;;3.95;;
35907;SDS011;22003;50.320;8.054;2022-08-01T13:34:09;3.53;;;3.22;;
35907;SDS011;22003;50.320;8.054;2022-08-01T13:36:35;3.33;;;3.03;;
35907;SDS011;22003;50.320;8.054;2022-08-01T13:39:01;5.57;;;3.15;;
35907;SDS011;22003;50.320;8.054;2022-08-01T13:41:46;3.40;;;3.08;;
35907;SDS011;22003;50.320;8.054;2022-08-01T13:44:12;3.00;;;2.60;;
35907;SDS011;22003;50.320;8.054;2022-08-01T13:46:38;3.85;;;2.95;;
35907;SDS011;22003;50.320;8.054;2022-08-01T13:49:05;3.90;;;2.97;;
35907;SDS011;22003;50.320;8.054;2022-08-01T13:51:34;3.17;;;2.88;;
35907;SDS011;22003;50.320;8.054;2022-08-01T13:54:00;3.47;;;2.90;;
35907;SDS011;22003;50.320;8.054;2022-08-01T13:56:26;2.90;;;2.60;;
35907;SDS011;22003;50.320;8.054;2022-08-01T13:58:55;3.65;;;2.60;;
35907;SDS011;22003;50.320;8.054;2022-08-01T14:01:20;4.22;;;3.15;;
35907;SDS011;22003;50.320;8.054;2022-08-01T14:03:46;6.35;;;3.08;;
35907;SDS011;22003;50.320;8.054;2022-08-01T14:06:12;3.38;;;2.88;;
35907;SDS011;22003;50.320;8.054;2022-08-01T14:08:39;3.63;;;3.17;;
35907;SDS011;22003;50.320;8.054;2022-08-01T14:11:04;3.40;;;3.10;;
35907;SDS011;22003;50.320;8.054;2022-08-01T14:13:30;6.20;;;2.90;;
35907;SDS011;22003;50.320;8.054;2022-08-01T14:15:55;3.72;;;3.10;;
35907;SDS011;22003;50.320;8.054;2022-08-01T14:18:21;5.55;;;3.17;;
35907;SDS011;22003;50.320;8.054;2022-08-01T14:20:46;4.75;;;2.65;;
35907;SDS011;22003;50.320;8.054;2022-08-01T14:23:11;3.00;;;2.70;;
35907;SDS011;22003;50.320;8.054;2022-08-01T14:25:37;3.90;;;2.58;;
35907;SDS011;22003;50.320;8.054;2022-08-01T14:28:04;2.75;;;2.50;;
35907;SDS011;22003;50.320;8.054;2022-08-01T14:30:29;3.45;;;2.60;;
35907;SDS011;22003;50.320;8.054;2022-08-01T14:32:55;2.50;;;2.20;;
35907;SDS011;22003;50.320;8.054;2022-08-01T14:35:20;3.60;;;2.80;;
35907;SDS011;22003;50.320;8.054;2022-08-01T14:37:46;3.70;;;2.50;;
35907;SDS011;22003;50.320;8.054;2022-08-01T14:40:11;4.88;;;2.83;;
35907;SDS011;22003;50.320;8.054;2022-08-01T14:42:37;4.32;;;3.08;;
35907;SDS011;22003;50.320;8.054;2022-08-01T14:45:04;4.15;;;2.85;;
35907;SDS011;22003;50.320;8.054;2022-08-01T14:47:34;4.15;;;3.10;;
35907;SDS011;22003;50.320;8.054;2022-08-01T14:50:00;4.73;;;3.20;;
35907;SDS011;22003;50.320;8.054;2022-08-01T14:52:25;3.30;;;3.00;;
35907;SDS011;22003;50.320;8.054;2022-08-01T14:54:50;2.83;;;2.53;;
35907;SDS011;22003;50.320;8.054;2022-08-01T14:57:16;3.13;;;2.83;;
35907;SDS011;22003;50.320;8.054;2022-08-01T14:59:43;4.18;;;2.78;;
35907;SDS011;22003;50.320;8.054;2022-08-01T15:02:08;3.00;;;2.70;;
35907;SDS011;22003;50.320;8.054;2022-08-01T15:04:35;3.47;;;3.10;;
35907;SDS011;22003;50.320;8.054;2022-08-01T15:07:00;3.83;;;2.97;;
35907;SDS011;22003;50.320;8.054;2022-08-01T15:09:25;4.43;;;3.25;;
35907;SDS011;22003;50.320;8.054;2022-08-01T15:11:51;14.52;;;3.83;;
35907;SDS011;22003;50.320;8.054;2022-08-01T15:14:16;4.00;;;2.42;;
35907;SDS011;22003;50.320;8.054;2022-08-01T15:17:00;5.25;;;2.80;;
35907;SDS011;22003;50.320;8.054;2022-08-01T15:19:25;4.18;;;3.25;;
35907;SDS011;22003;50.320;8.054;2022-08-01T15:21:51;6.18;;;2.58;;
35907;SDS011;22003;50.320;8.054;2022-08-01T15:24:16;3.88;;;2.35;;
35907;SDS011;22003;50.320;8.054;2022-08-01T15:26:42;5.78;;;2.30;;
35907;SDS011;22003;50.320;8.054;2022-08-01T15:29:07;3.13;;;2.75;;
35907;SDS011;22003;50.320;8.054;2022-08-01T15:31:32;12.02;;;3.72;;
35907;SDS011;22003;50.320;8.054;2022-08-01T15:33:57;4.05;;;2.67;;
35907;SDS011;22003;50.320;8.054;2022-08-01T15:36:23;2.95;;;2.65;;
35907;SDS011;22003;50.320;8.054;2022-08-01T15:38:48;4.25;;;2.90;;
35907;SDS011;22003;50.320;8.054;2022-08-01T15:41:14;12.40;;;3.58;;
35907;SDS011;22003;50.320;8.054;2022-08-01T15:43:39;3.08;;;2.78;;
35907;SDS011;22003;50.320;8.054;2022-08-01T15:46:04;3.58;;;2.63;;
35907;SDS011;22003;50.320;8.054;2022-08-01T15:48:29;4.03;;;3.38;;
35907;SDS011;22003;50.320;8.054;2022-08-01T15:50:55;3.85;;;2.83;;
35907;SDS011;22003;50.320;8.054;2022-08-01T15:53:20;3.20;;;2.90;;
35907;SDS011;22003;50.320;8.054;2022-08-01T15:55:45;3.75;;;3.00;;
35907;SDS011;22003;50.320;8.054;2022-08-01T15:58:11;3.42;;;3.13;;
35907;SDS011;22003;50.320;8.054;2022-08-01T16:00:36;3.50;;;2.80;;
35907;SDS011;22003;50.320;8.054;2022-08-01T16:03:02;4.53;;;2.78;;
35907;SDS011;22003;50.320;8.054;2022-08-01T16:05:27;3.58;;;2.90;;
35907;SDS011;22003;50.320;8.054;2022-08-01T16:07:52;3.85;;;3.00;;
35907;SDS011;22003;50.320;8.054;2022-08-01T16:10:17;3.35;;;3.05;;
35907;SDS011;22003;50.320;8.054;2022-08-01T16:12:43;4.57;;;3.10;;
35907;SDS011;22003;50.320;8.054;2022-08-01T16:15:08;2.95;;;2.72;;
35907;SDS011;22003;50.320;8.054;2022-08-01T16:17:34;4.85;;;3.05;;
35907;SDS011;22003;50.320;8.054;2022-08-01T16:19:59;3.50;;;3.00;;
35907;SDS011;22003;50.320;8.054;2022-08-01T16:22:26;4.45;;;3.08;;
35907;SDS011;22003;50.320;8.054;2022-08-01T16:24:51;4.40;;;3.20;;
35907;SDS011;22003;50.320;8.054;2022-08-01T16:27:16;4.47;;;2.75;;
35907;SDS011;22003;50.320;8.054;2022-08-01T16:29:42;3.42;;;3.10;;
35907;SDS011;22003;50.320;8.054;2022-08-01T16:32:07;5.32;;;2.80;;
35907;SDS011;22003;50.320;8.054;2022-08-01T16:34:33;3.30;;;2.92;;
35907;SDS011;22003;50.320;8.054;2022-08-01T16:36:58;3.13;;;2.78;;
35907;SDS011;22003;50.320;8.054;2022-08-01T16:39:23;3.70;;;3.00;;
35907;SDS011;22003;50.320;8.054;2022-08-01T16:41:49;2.75;;;2.42;;
35907;SDS011;22003;50.320;8.054;2022-08-01T16:44:15;4.18;;;3.00;;
35907;SDS011;22003;50.320;8.054;2022-08-01T16:46:40;3.08;;;2.65;;
35907;SDS011;22003;50.320;8.054;2022-08-01T16:49:06;4.45;;;2.33;;
35907;SDS011;22003;50.320;8.054;2022-08-01T16:51:31;2.22;;;1.98;;
35907;SDS011;22003;50.320;8.054;2022-08-01T16:53:58;3.63;;;2.10;;
35907;SDS011;22003;50.320;8.054;2022-08-01T16:56:24;3.35;;;3.05;;
35907;SDS011;22003;50.320;8.054;2022-08-01T16:58:49;3.72;;;2.70;;
35907;SDS011;22003;50.320;8.054;2022-08-01T17:01:14;5.72;;;3.00;;
35907;SDS011;22003;50.320;8.054;2022-08-01T17:03:42;4.50;;;2.70;;
35907;SDS011;22003;50.320;8.054;2022-08-01T17:06:07;3.95;;;2.70;;
35907;SDS011;22003;50.320;8.054;2022-08-01T17:08:32;3.25;;;2.63;;
35907;SDS011;22003;50.320;8.054;2022-08-01T17:10:58;3.75;;;2.63;;
35907;SDS011;22003;50.320;8.054;2022-08-01T17:13:23;3.80;;;2.70;;
35907;SDS011;22003;50.320;8.054;2022-08-01T17:15:49;4.05;;;3.40;;
35907;SDS011;22003;50.320;8.054;2022-08-01T17:18:15;3.03;;;2.72;;
35907;SDS011;22003;50.320;8.054;2022-08-01T17:20:41;3.78;;;3.17;;
35907;SDS011;22003;50.320;8.054;2022-08-01T17:25:34;3.50;;;3.00;;
35907;SDS011;22003;50.320;8.054;2022-08-01T17:27:59;3.72;;;3.20;;
35907;SDS011;22003;50.320;8.054;2022-08-01T17:30:25;3.38;;;3.08;;
35907;SDS011;22003;50.320;8.054;2022-08-01T17:32:50;4.13;;;3.08;;
35907;SDS011;22003;50.320;8.054;2022-08-01T17:35:15;3.88;;;3.30;;
35907;SDS011;22003;50.320;8.054;2022-08-01T17:37:41;4.70;;;2.80;;
35907;SDS011;22003;50.320;8.054;2022-08-01T17:40:07;9.80;;;3.00;;
35907;SDS011;22003;50.320;8.054;2022-08-01T17:42:33;4.60;;;3.10;;
35907;SDS011;22003;50.320;8.054;2022-08-01T17:44:58;3.05;;;2.28;;
35907;SDS011;22003;50.320;8.054;2022-08-01T17:47:24;2.88;;;2.40;;
35907;SDS011;22003;50.320;8.054;2022-08-01T17:49:50;2.83;;;2.35;;
35907;SDS011;22003;50.320;8.054;2022-08-01T17:52:15;4.25;;;2.80;;
35907;SDS011;22003;50.320;8.054;2022-08-01T17:54:41;3.08;;;2.17;;
35907;SDS011;22003;50.320;8.054;2022-08-01T17:57:06;2.53;;;2.20;;
35907;SDS011;22003;50.320;8.054;2022-08-01T17:59:31;2.92;;;2.63;;
35907;SDS011;22003;50.320;8.054;2022-08-01T18:01:56;3.85;;;2.70;;
35907;SDS011;22003;50.320;8.054;2022-08-01T18:04:22;2.63;;;2.40;;
35907;SDS011;22003;50.320;8.054;2022-08-01T18:06:47;2.45;;;2.20;;
35907;SDS011;22003;50.320;8.054;2022-08-01T18:09:12;3.17;;;2.38;;
35907;SDS011;22003;50.320;8.054;2022-08-01T18:11:38;3.92;;;2.85;;
35907;SDS011;22003;50.320;8.054;2022-08-01T18:14:03;3.53;;;2.42;;
35907;SDS011;22003;50.320;8.054;2022-08-01T18:16:29;3.53;;;3.00;;
35907;SDS011;22003;50.320;8.054;2022-08-01T18:18:55;5.63;;;2.65;;
35907;SDS011;22003;50.320;8.054;2022-08-01T18:21:20;3.00;;;2.70;;
35907;SDS011;22003;50.320;8.054;2022-08-01T18:23:45;5.25;;;3.17;;
35907;SDS011;22003;50.320;8.054;2022-08-01T18:26:11;3.67;;;2.88;;
35907;SDS011;22003;50.320;8.054;2022-08-01T18:28:36;3.83;;;2.95;;
35907;SDS011;22003;50.320;8.054;2022-08-01T18:31:04;3.70;;;3.00;;
35907;SDS011;22003;50.320;8.054;2022-08-01T18:33:30;3.28;;;2.92;;
35907;SDS011;22003;50.320;8.054;2022-08-01T18:35:56;5.22;;;2.80;;
35907;SDS011;22003;50.320;8.054;2022-08-01T18:38:21;6.32;;;2.90;;
35907;SDS011;22003;50.320;8.054;2022-08-01T18:40:46;3.65;;;2.72;;
35907;SDS011;22003;50.320;8.054;2022-08-01T18:43:11;3.85;;;3.40;;
35907;SDS011;22003;50.320;8.054;2022-08-01T18:45:37;3.70;;;3.25;;
35907;SDS011;22003;50.320;8.054;2022-08-01T18:48:02;3.20;;;2.53;;
35907;SDS011;22003;50.320;8.054;2022-08-01T18:50:28;6.78;;;2.85;;
35907;SDS011;22003;50.320;8.054;2022-08-01T18:52:53;4.53;;;3.10;;
35907;SDS011;22003;50.320;8.054;2022-08-01T18:55:18;3.30;;;3.00;;
35907;SDS011;22003;50.320;8.054;2022-08-01T18:57:44;4.90;;;3.10;;
35907;SDS011;22003;50.320;8.054;2022-08-01T19:00:10;4.45;;;3.38;;
35907;SDS011;22003;50.320;8.054;2022-08-01T19:05:03;7.37;;;3.43;;
35907;SDS011;22003;50.320;8.054;2022-08-01T19:07:28;5.43;;;3.20;;
35907;SDS011;22003;50.320;8.054;2022-08-01T19:09:54;4.97;;;3.05;;
35907;SDS011;22003;50.320;8.054;2022-08-01T19:12:19;6.07;;;3.40;;
35907;SDS011;22003;50.320;8.054;2022-08-01T19:14:44;3.17;;;2.88;;
35907;SDS011;22003;50.320;8.054;2022-08-01T19:17:09;5.13;;;3.17;;
35907;SDS011;22003;50.320;8.054;2022-08-01T19:19:35;5.63;;;3.20;;
35907;SDS011;22003;50.320;8.054;2022-08-01T19:22:01;6.35;;;3.15;;
35907;SDS011;22003;50.320;8.054;2022-08-01T19:24:27;6.97;;;3.78;;
35907;SDS011;22003;50.320;8.054;2022-08-01T19:26:58;4.22;;;2.88;;
35907;SDS011;22003;50.320;8.054;2022-08-01T19:29:32;3.47;;;2.97;;